EXS78GK ENBR-EGBB
Flight info
| Callsign | EXS78GK |
|---|---|
| Flight time | 1h 31m |
| Altitude | 36000 |
| Route | EPOTU DCT KLONN DCT OMENU |
| Aircraft | B738/M-SDE2E3FGHIRWXY/LB1 |
Departure
| Time | 2026-05-06 21:00 |
|---|---|
| Airport | Bergen Airport, Flesland (ENBR) |
Arrival
| Time | 2026-05-06 22:31 |
|---|---|
| Airport | Birmingham Airport (EGBB) |
| Time | Latitude | Longitude | Altitude | Speed | Heading |
|---|---|---|---|---|---|
| 2026-05-06 20:16 | 60.28812 | 5.22692 | 172 ft | 0 kts | 10° |
| 2026-05-06 20:48 | 60.28791 | 5.22684 | 172 ft | 4 kts | 10° |
| 2026-05-06 20:48 | 60.28764 | 5.22675 | 171 ft | 4 kts | 6° |
| 2026-05-06 20:48 | 60.28738 | 5.22674 | 170 ft | 4 kts | 347° |
| 2026-05-06 20:48 | 60.28722 | 5.22690 | 169 ft | 4 kts | 270° |
| 2026-05-06 20:49 | 60.28722 | 5.22696 | 170 ft | 1 kts | 261° |
| 2026-05-06 20:52 | 60.28720 | 5.22671 | 169 ft | 5 kts | 261° |
| 2026-05-06 20:52 | 60.28710 | 5.22545 | 166 ft | 12 kts | 259° |
| 2026-05-06 20:53 | 60.28692 | 5.22375 | 163 ft | 13 kts | 302° |
| 2026-05-06 20:53 | 60.28777 | 5.22325 | 161 ft | 13 kts | 351° |
| 2026-05-06 20:53 | 60.28865 | 5.22297 | 161 ft | 13 kts | 352° |
| 2026-05-06 20:53 | 60.28964 | 5.22264 | 161 ft | 15 kts | 351° |
| 2026-05-06 20:54 | 60.29073 | 5.22227 | 161 ft | 16 kts | 351° |
| 2026-05-06 20:54 | 60.29186 | 5.22189 | 162 ft | 17 kts | 351° |
| 2026-05-06 20:54 | 60.29319 | 5.22144 | 160 ft | 22 kts | 351° |
| 2026-05-06 20:54 | 60.29488 | 5.22087 | 154 ft | 26 kts | 350° |
| 2026-05-06 20:55 | 60.29671 | 5.22026 | 147 ft | 27 kts | 350° |
| 2026-05-06 20:55 | 60.29848 | 5.21965 | 150 ft | 25 kts | 350° |
| 2026-05-06 20:55 | 60.30012 | 5.21911 | 156 ft | 23 kts | 350° |
| 2026-05-06 20:55 | 60.30168 | 5.21859 | 163 ft | 22 kts | 351° |
| 2026-05-06 20:56 | 60.30320 | 5.21808 | 168 ft | 22 kts | 351° |
| 2026-05-06 20:56 | 60.30458 | 5.21763 | 173 ft | 16 kts | 350° |
| 2026-05-06 20:56 | 60.30551 | 5.21731 | 178 ft | 10 kts | 350° |
| 2026-05-06 20:56 | 60.30620 | 5.21707 | 180 ft | 10 kts | 351° |
| 2026-05-06 20:57 | 60.30665 | 5.21620 | 181 ft | 10 kts | 276° |
| 2026-05-06 20:57 | 60.30663 | 5.21576 | 182 ft | 1 kts | 261° |
| 2026-05-06 20:57 | 60.30661 | 5.21562 | 182 ft | 2 kts | 262° |
| 2026-05-06 20:57 | 60.30658 | 5.21518 | 182 ft | 5 kts | 260° |
| 2026-05-06 20:58 | 60.30646 | 5.21422 | 183 ft | 9 kts | 239° |
| 2026-05-06 20:58 | 60.30584 | 5.21401 | 181 ft | 9 kts | 170° |
| 2026-05-06 20:58 | 60.30574 | 5.21405 | 180 ft | 0 kts | 170° |
| 2026-05-06 20:59 | 60.30502 | 5.21429 | 174 ft | 36 kts | 171° |
| 2026-05-06 20:59 | 60.29985 | 5.21605 | 161 ft | 112 kts | 171° |
| 2026-05-06 21:00 | 60.29011 | 5.21949 | 221 ft | 165 kts | 170° |
| 2026-05-06 21:00 | 60.27872 | 5.22322 | 1087 ft | 162 kts | 172° |
| 2026-05-06 21:00 | 60.26739 | 5.22677 | 1930 ft | 170 kts | 171° |
| 2026-05-06 21:00 | 60.25480 | 5.23063 | 2439 ft | 196 kts | 172° |
| 2026-05-06 21:01 | 60.24056 | 5.23511 | 2769 ft | 221 kts | 171° |
| 2026-05-06 21:01 | 60.22484 | 5.24034 | 3233 ft | 235 kts | 171° |
| 2026-05-06 21:01 | 60.20792 | 5.24603 | 3598 ft | 255 kts | 172° |
| 2026-05-06 21:01 | 60.19006 | 5.25208 | 4320 ft | 263 kts | 172° |
| 2026-05-06 21:02 | 60.17208 | 5.25820 | 5279 ft | 263 kts | 172° |
| 2026-05-06 21:02 | 60.15393 | 5.26436 | 6148 ft | 267 kts | 172° |
| 2026-05-06 21:02 | 60.13548 | 5.27062 | 6974 ft | 271 kts | 173° |
| 2026-05-06 21:02 | 60.11671 | 5.27131 | 7745 ft | 271 kts | 197° |
| 2026-05-06 21:03 | 60.10022 | 5.25450 | 8559 ft | 267 kts | 225° |
| 2026-05-06 21:03 | 60.08975 | 5.22449 | 9418 ft | 264 kts | 250° |
| 2026-05-06 21:03 | 60.08522 | 5.18905 | 10260 ft | 264 kts | 261° |
| 2026-05-06 21:03 | 60.08530 | 5.15263 | 11067 ft | 263 kts | 284° |
| 2026-05-06 21:04 | 60.09322 | 5.11969 | 11937 ft | 266 kts | 305° |
| 2026-05-06 21:04 | 60.10580 | 5.09080 | 12286 ft | 286 kts | 301° |
| 2026-05-06 21:04 | 60.11469 | 5.05362 | 12517 ft | 306 kts | 291° |
| 2026-05-06 21:04 | 60.12317 | 5.01334 | 13032 ft | 318 kts | 292° |
| 2026-05-06 21:05 | 60.13226 | 4.97266 | 13856 ft | 321 kts | 292° |
| 2026-05-06 21:05 | 60.14170 | 4.93213 | 14679 ft | 321 kts | 293° |
| 2026-05-06 21:05 | 60.15135 | 4.89166 | 15447 ft | 323 kts | 294° |
| 2026-05-06 21:05 | 60.16117 | 4.85095 | 16200 ft | 325 kts | 294° |
| 2026-05-06 21:06 | 60.17105 | 4.81007 | 16963 ft | 326 kts | 294° |
| 2026-05-06 21:06 | 60.18093 | 4.76892 | 17726 ft | 328 kts | 291° |
| 2026-05-06 21:06 | 60.18634 | 4.72480 | 18423 ft | 328 kts | 273° |
| 2026-05-06 21:06 | 60.18401 | 4.67897 | 19093 ft | 332 kts | 258° |
| 2026-05-06 21:07 | 60.17616 | 4.63502 | 19727 ft | 339 kts | 248° |
| 2026-05-06 21:07 | 60.16242 | 4.59587 | 20347 ft | 350 kts | 232° |
| 2026-05-06 21:07 | 60.14494 | 4.56156 | 20963 ft | 354 kts | 229° |
| 2026-05-06 21:07 | 60.12660 | 4.52823 | 21560 ft | 357 kts | 228° |
| 2026-05-06 21:08 | 60.10799 | 4.49499 | 22147 ft | 360 kts | 228° |
| 2026-05-06 21:08 | 60.08925 | 4.46141 | 22728 ft | 362 kts | 229° |
| 2026-05-06 21:08 | 60.07051 | 4.42757 | 23315 ft | 364 kts | 229° |
| 2026-05-06 21:08 | 60.05198 | 4.39391 | 23818 ft | 366 kts | 229° |
| 2026-05-06 21:09 | 60.03313 | 4.35954 | 24239 ft | 368 kts | 229° |
| 2026-05-06 21:09 | 60.01415 | 4.32488 | 24665 ft | 372 kts | 229° |
| 2026-05-06 21:09 | 59.99496 | 4.28987 | 25086 ft | 374 kts | 229° |
| 2026-05-06 21:09 | 59.97570 | 4.25476 | 25501 ft | 377 kts | 229° |
| 2026-05-06 21:10 | 59.95625 | 4.21936 | 25899 ft | 379 kts | 229° |
| 2026-05-06 21:10 | 59.93669 | 4.18381 | 26299 ft | 382 kts | 229° |
| 2026-05-06 21:10 | 59.91695 | 4.14802 | 26691 ft | 385 kts | 229° |
| 2026-05-06 21:10 | 59.89708 | 4.11207 | 27079 ft | 387 kts | 229° |
| 2026-05-06 21:11 | 59.87564 | 4.07852 | 27438 ft | 397 kts | 221° |
| 2026-05-06 21:11 | 59.85145 | 4.05088 | 27796 ft | 408 kts | 213° |
| 2026-05-06 21:11 | 59.82532 | 4.02786 | 28167 ft | 412 kts | 212° |
| 2026-05-06 21:11 | 59.79895 | 4.00519 | 28500 ft | 415 kts | 211° |
| 2026-05-06 21:12 | 59.77235 | 3.98242 | 28826 ft | 417 kts | 211° |
| 2026-05-06 21:12 | 59.74562 | 3.95950 | 29141 ft | 420 kts | 211° |
| 2026-05-06 21:12 | 59.71874 | 3.93637 | 29496 ft | 421 kts | 211° |
| 2026-05-06 21:12 | 59.69192 | 3.91325 | 29989 ft | 420 kts | 212° |
| 2026-05-06 21:13 | 59.66522 | 3.89023 | 30418 ft | 418 kts | 212° |
| 2026-05-06 21:13 | 59.63852 | 3.86716 | 30718 ft | 419 kts | 211° |
| 2026-05-06 21:13 | 59.61178 | 3.84405 | 30987 ft | 421 kts | 211° |
| 2026-05-06 21:13 | 59.58490 | 3.82084 | 31310 ft | 421 kts | 211° |
| 2026-05-06 21:14 | 59.55812 | 3.79777 | 31681 ft | 420 kts | 211° |
| 2026-05-06 21:14 | 59.53132 | 3.77474 | 32029 ft | 420 kts | 211° |
| 2026-05-06 21:14 | 59.50459 | 3.75180 | 32333 ft | 420 kts | 211° |
| 2026-05-06 21:14 | 59.47777 | 3.72881 | 32665 ft | 420 kts | 211° |
| 2026-05-06 21:15 | 59.45102 | 3.70593 | 33017 ft | 419 kts | 210° |
| 2026-05-06 21:15 | 59.42434 | 3.68316 | 33363 ft | 418 kts | 210° |
| 2026-05-06 21:15 | 59.39764 | 3.66040 | 33681 ft | 418 kts | 210° |
| 2026-05-06 21:15 | 59.37093 | 3.63767 | 34008 ft | 418 kts | 210° |
| 2026-05-06 21:16 | 59.34431 | 3.61506 | 34295 ft | 417 kts | 210° |
| 2026-05-06 21:16 | 59.31768 | 3.59248 | 34511 ft | 418 kts | 210° |
| 2026-05-06 21:16 | 59.29099 | 3.56986 | 34711 ft | 419 kts | 210° |
| 2026-05-06 21:16 | 59.26428 | 3.54728 | 34937 ft | 419 kts | 210° |
| 2026-05-06 21:17 | 59.23748 | 3.52466 | 35154 ft | 419 kts | 210° |
| 2026-05-06 21:17 | 59.21068 | 3.50209 | 35365 ft | 420 kts | 209° |
| 2026-05-06 21:17 | 59.18386 | 3.47954 | 35576 ft | 420 kts | 209° |
| 2026-05-06 21:17 | 59.15701 | 3.45700 | 35757 ft | 421 kts | 209° |
| 2026-05-06 21:18 | 59.13005 | 3.43440 | 35962 ft | 422 kts | 209° |
| 2026-05-06 21:18 | 59.07580 | 3.38903 | 36055 ft | 427 kts | 209° |
| 2026-05-06 21:19 | 59.02158 | 3.34390 | 36055 ft | 425 kts | 208° |
| 2026-05-06 21:19 | 58.96762 | 3.29919 | 36056 ft | 420 kts | 209° |
| 2026-05-06 21:20 | 58.91397 | 3.25481 | 36063 ft | 418 kts | 209° |
| 2026-05-06 21:20 | 58.86051 | 3.21071 | 36062 ft | 417 kts | 209° |
| 2026-05-06 21:21 | 58.80710 | 3.16682 | 36061 ft | 417 kts | 208° |
| 2026-05-06 21:21 | 58.75365 | 3.12303 | 36068 ft | 418 kts | 208° |
| 2026-05-06 21:22 | 58.70012 | 3.07933 | 36068 ft | 419 kts | 208° |
| 2026-05-06 21:22 | 58.64638 | 3.03561 | 36067 ft | 420 kts | 208° |
| 2026-05-06 21:23 | 58.59252 | 2.99194 | 36069 ft | 421 kts | 208° |
| 2026-05-06 21:23 | 58.53841 | 2.94822 | 36068 ft | 422 kts | 208° |
| 2026-05-06 21:24 | 58.48419 | 2.90454 | 36066 ft | 423 kts | 208° |
| 2026-05-06 21:24 | 58.42985 | 2.86091 | 36071 ft | 424 kts | 208° |
| 2026-05-06 21:25 | 58.37627 | 2.81446 | 36062 ft | 419 kts | 216° |
| 2026-05-06 21:25 | 58.32670 | 2.75632 | 36069 ft | 418 kts | 217° |
| 2026-05-06 21:26 | 58.27733 | 2.69778 | 36072 ft | 418 kts | 217° |
| 2026-05-06 21:26 | 58.22777 | 2.63959 | 36069 ft | 419 kts | 217° |
| 2026-05-06 21:27 | 58.17849 | 2.58224 | 36068 ft | 418 kts | 217° |
| 2026-05-06 21:27 | 58.12885 | 2.52477 | 36072 ft | 418 kts | 216° |
| 2026-05-06 21:28 | 58.07916 | 2.46746 | 36078 ft | 418 kts | 216° |
| 2026-05-06 21:28 | 58.02952 | 2.41038 | 36072 ft | 419 kts | 216° |
| 2026-05-06 21:29 | 57.97924 | 2.35272 | 36205 ft | 426 kts | 216° |
| 2026-05-06 21:29 | 57.95386 | 2.32370 | 36381 ft | 427 kts | 216° |
| 2026-05-06 21:29 | 57.92847 | 2.29474 | 36622 ft | 426 kts | 216° |
| 2026-05-06 21:29 | 57.90314 | 2.26591 | 36847 ft | 426 kts | 216° |
| 2026-05-06 21:30 | 57.87777 | 2.23706 | 37015 ft | 427 kts | 216° |
| 2026-05-06 21:30 | 57.85233 | 2.20819 | 37202 ft | 427 kts | 216° |
| 2026-05-06 21:30 | 57.82693 | 2.17939 | 37418 ft | 426 kts | 215° |
| 2026-05-06 21:30 | 57.80158 | 2.15072 | 37640 ft | 426 kts | 215° |
| 2026-05-06 21:31 | 57.77616 | 2.12200 | 37802 ft | 427 kts | 215° |
| 2026-05-06 21:31 | 57.75072 | 2.09331 | 37976 ft | 427 kts | 215° |
| 2026-05-06 21:31 | 57.72527 | 2.06465 | 38069 ft | 428 kts | 215° |
| 2026-05-06 21:32 | 57.67408 | 2.00713 | 38076 ft | 429 kts | 215° |
| 2026-05-06 21:32 | 57.60617 | 1.93118 | 38071 ft | 426 kts | 215° |
| 2026-05-06 21:33 | 57.55538 | 1.87459 | 38072 ft | 424 kts | 215° |
| 2026-05-06 21:33 | 57.50474 | 1.81833 | 38072 ft | 423 kts | 214° |
| 2026-05-06 21:34 | 57.45418 | 1.76233 | 38076 ft | 423 kts | 214° |
| 2026-05-06 21:34 | 57.40355 | 1.70644 | 38075 ft | 424 kts | 214° |
| 2026-05-06 21:35 | 57.35278 | 1.65057 | 38079 ft | 425 kts | 214° |
| 2026-05-06 21:35 | 57.30175 | 1.59461 | 38079 ft | 427 kts | 214° |
| 2026-05-06 21:36 | 57.25045 | 1.53854 | 38080 ft | 429 kts | 214° |
| 2026-05-06 21:36 | 57.19895 | 1.48243 | 38078 ft | 431 kts | 214° |
| 2026-05-06 21:37 | 57.14750 | 1.42657 | 38077 ft | 433 kts | 214° |
| 2026-05-06 21:37 | 57.09553 | 1.37033 | 38077 ft | 434 kts | 214° |
| 2026-05-06 21:38 | 57.04339 | 1.31409 | 38077 ft | 435 kts | 214° |
| 2026-05-06 21:38 | 56.99119 | 1.25796 | 38075 ft | 435 kts | 214° |
| 2026-05-06 21:39 | 56.93896 | 1.20200 | 38075 ft | 435 kts | 214° |
| 2026-05-06 21:39 | 56.88667 | 1.14615 | 38072 ft | 434 kts | 214° |
| 2026-05-06 21:40 | 56.83450 | 1.09062 | 38069 ft | 434 kts | 214° |
| 2026-05-06 21:40 | 56.78238 | 1.03531 | 38068 ft | 433 kts | 214° |
| 2026-05-06 21:41 | 56.73030 | 0.98022 | 38072 ft | 433 kts | 214° |
| 2026-05-06 21:41 | 56.67824 | 0.92533 | 38074 ft | 432 kts | 213° |
| 2026-05-06 21:42 | 56.62623 | 0.87067 | 38062 ft | 432 kts | 213° |
| 2026-05-06 21:42 | 56.57421 | 0.81617 | 38067 ft | 432 kts | 213° |
| 2026-05-06 21:43 | 56.52220 | 0.76186 | 38079 ft | 432 kts | 213° |
| 2026-05-06 21:43 | 56.47008 | 0.70761 | 38073 ft | 432 kts | 213° |
| 2026-05-06 21:44 | 56.41792 | 0.65348 | 38077 ft | 433 kts | 213° |
| 2026-05-06 21:44 | 56.36567 | 0.59945 | 38074 ft | 433 kts | 213° |
| 2026-05-06 21:45 | 56.31365 | 0.54582 | 38074 ft | 434 kts | 213° |
| 2026-05-06 21:45 | 56.26123 | 0.49193 | 38072 ft | 435 kts | 213° |
| 2026-05-06 21:46 | 56.20866 | 0.43808 | 38071 ft | 435 kts | 213° |
| 2026-05-06 21:46 | 56.15597 | 0.38428 | 38070 ft | 436 kts | 213° |
| 2026-05-06 21:47 | 56.10316 | 0.33052 | 38068 ft | 437 kts | 213° |
| 2026-05-06 21:47 | 56.05028 | 0.27687 | 38070 ft | 437 kts | 213° |
| 2026-05-06 21:48 | 55.99732 | 0.22330 | 38069 ft | 437 kts | 213° |
| 2026-05-06 21:48 | 55.94438 | 0.16993 | 38067 ft | 438 kts | 213° |
| 2026-05-06 21:49 | 55.89129 | 0.11658 | 38070 ft | 438 kts | 213° |
| 2026-05-06 21:49 | 55.83829 | 0.06347 | 38064 ft | 438 kts | 213° |
| 2026-05-06 21:50 | 55.78514 | 0.01040 | 38067 ft | 437 kts | 212° |
| 2026-05-06 21:50 | 55.73212 | -0.04238 | 38066 ft | 437 kts | 212° |
| 2026-05-06 21:51 | 55.67902 | -0.09507 | 38069 ft | 437 kts | 212° |
| 2026-05-06 21:51 | 55.62595 | -0.14759 | 38063 ft | 437 kts | 212° |
| 2026-05-06 21:52 | 55.57286 | -0.19994 | 38065 ft | 437 kts | 212° |
| 2026-05-06 21:52 | 55.51981 | -0.25210 | 38065 ft | 437 kts | 212° |
| 2026-05-06 21:53 | 55.46668 | -0.30417 | 38065 ft | 437 kts | 212° |
| 2026-05-06 21:53 | 55.41356 | -0.35607 | 38065 ft | 437 kts | 212° |
| 2026-05-06 21:54 | 55.36042 | -0.40784 | 38065 ft | 437 kts | 212° |
| 2026-05-06 21:54 | 55.30722 | -0.45949 | 38064 ft | 437 kts | 212° |
| 2026-05-06 21:55 | 55.25424 | -0.51078 | 38066 ft | 437 kts | 212° |
| 2026-05-06 21:55 | 55.20094 | -0.56221 | 38058 ft | 438 kts | 212° |
| 2026-05-06 21:56 | 55.14748 | -0.61365 | 38057 ft | 439 kts | 212° |
| 2026-05-06 21:56 | 55.09401 | -0.66493 | 38073 ft | 439 kts | 212° |
| 2026-05-06 21:57 | 55.04039 | -0.71621 | 38059 ft | 440 kts | 212° |
| 2026-05-06 21:57 | 54.98666 | -0.76742 | 38058 ft | 440 kts | 211° |
| 2026-05-06 21:58 | 54.93286 | -0.81854 | 38063 ft | 441 kts | 211° |
| 2026-05-06 21:58 | 54.87898 | -0.86959 | 38060 ft | 441 kts | 211° |
| 2026-05-06 21:59 | 54.82502 | -0.92056 | 38055 ft | 442 kts | 211° |
| 2026-05-06 21:59 | 54.77104 | -0.97139 | 38060 ft | 442 kts | 211° |
| 2026-05-06 22:00 | 54.71695 | -1.02216 | 37992 ft | 444 kts | 211° |
| 2026-05-06 22:00 | 54.68961 | -1.04778 | 37503 ft | 448 kts | 211° |
| 2026-05-06 22:00 | 54.66242 | -1.07319 | 37124 ft | 442 kts | 211° |
| 2026-05-06 22:01 | 54.63543 | -1.09837 | 36698 ft | 439 kts | 211° |
| 2026-05-06 22:01 | 54.60872 | -1.12325 | 36307 ft | 435 kts | 211° |
| 2026-05-06 22:01 | 54.58215 | -1.14798 | 35906 ft | 432 kts | 211° |
| 2026-05-06 22:01 | 54.55571 | -1.17255 | 35495 ft | 430 kts | 211° |
| 2026-05-06 22:02 | 54.52947 | -1.19691 | 35094 ft | 428 kts | 211° |
| 2026-05-06 22:02 | 54.50333 | -1.22114 | 34661 ft | 426 kts | 211° |
| 2026-05-06 22:02 | 54.47726 | -1.24528 | 34248 ft | 427 kts | 211° |
| 2026-05-06 22:02 | 54.45094 | -1.26963 | 33797 ft | 432 kts | 211° |
| 2026-05-06 22:03 | 54.42455 | -1.29399 | 33361 ft | 430 kts | 211° |
| 2026-05-06 22:03 | 54.39861 | -1.31787 | 32953 ft | 427 kts | 211° |
| 2026-05-06 22:03 | 54.37255 | -1.34183 | 32541 ft | 424 kts | 211° |
| 2026-05-06 22:03 | 54.34660 | -1.36567 | 32147 ft | 421 kts | 211° |
| 2026-05-06 22:04 | 54.32088 | -1.38926 | 31758 ft | 418 kts | 211° |
| 2026-05-06 22:04 | 54.29534 | -1.41265 | 31365 ft | 415 kts | 211° |
| 2026-05-06 22:04 | 54.26992 | -1.43591 | 30983 ft | 413 kts | 211° |
| 2026-05-06 22:04 | 54.24467 | -1.45898 | 30609 ft | 410 kts | 211° |
| 2026-05-06 22:05 | 54.21958 | -1.48187 | 30233 ft | 408 kts | 210° |
| 2026-05-06 22:05 | 54.19462 | -1.50461 | 29809 ft | 405 kts | 210° |
| 2026-05-06 22:05 | 54.16988 | -1.52712 | 29380 ft | 402 kts | 210° |
| 2026-05-06 22:05 | 54.14528 | -1.54947 | 28964 ft | 398 kts | 210° |
| 2026-05-06 22:06 | 54.12099 | -1.57152 | 28581 ft | 394 kts | 210° |
| 2026-05-06 22:06 | 54.09686 | -1.59340 | 28196 ft | 390 kts | 210° |
| 2026-05-06 22:06 | 54.07304 | -1.61496 | 27824 ft | 386 kts | 210° |
| 2026-05-06 22:06 | 54.04944 | -1.63629 | 27461 ft | 382 kts | 210° |
| 2026-05-06 22:07 | 54.02604 | -1.65756 | 27084 ft | 379 kts | 212° |
| 2026-05-06 22:07 | 54.00545 | -1.68426 | 26863 ft | 366 kts | 226° |
| 2026-05-06 22:07 | 53.98718 | -1.71373 | 26632 ft | 360 kts | 226° |
| 2026-05-06 22:07 | 53.96930 | -1.74313 | 26409 ft | 355 kts | 226° |
| 2026-05-06 22:08 | 53.95163 | -1.77208 | 26185 ft | 350 kts | 226° |
| 2026-05-06 22:08 | 53.93409 | -1.80060 | 25975 ft | 351 kts | 226° |
| 2026-05-06 22:08 | 53.91628 | -1.82935 | 25777 ft | 355 kts | 226° |
| 2026-05-06 22:08 | 53.89824 | -1.85827 | 25553 ft | 358 kts | 226° |
| 2026-05-06 22:09 | 53.88020 | -1.88705 | 25318 ft | 355 kts | 226° |
| 2026-05-06 22:09 | 53.86228 | -1.91557 | 25098 ft | 352 kts | 225° |
| 2026-05-06 22:09 | 53.84449 | -1.94384 | 24880 ft | 350 kts | 225° |
| 2026-05-06 22:09 | 53.82679 | -1.97192 | 24664 ft | 347 kts | 225° |
| 2026-05-06 22:10 | 53.80923 | -1.99978 | 24446 ft | 345 kts | 225° |
| 2026-05-06 22:10 | 53.79174 | -2.02748 | 24236 ft | 344 kts | 225° |
| 2026-05-06 22:10 | 53.77433 | -2.05502 | 24021 ft | 342 kts | 225° |
| 2026-05-06 22:10 | 53.75696 | -2.08242 | 23805 ft | 340 kts | 225° |
| 2026-05-06 22:11 | 53.73749 | -2.10512 | 23570 ft | 343 kts | 205° |
| 2026-05-06 22:11 | 53.71468 | -2.11706 | 23360 ft | 343 kts | 197° |
| 2026-05-06 22:11 | 53.69148 | -2.12659 | 23121 ft | 343 kts | 195° |
| 2026-05-06 22:11 | 53.66855 | -2.13556 | 22889 ft | 342 kts | 195° |
| 2026-05-06 22:12 | 53.64542 | -2.14464 | 22666 ft | 341 kts | 195° |
| 2026-05-06 22:12 | 53.62244 | -2.15380 | 22455 ft | 339 kts | 196° |
| 2026-05-06 22:12 | 53.59952 | -2.16306 | 22245 ft | 338 kts | 196° |
| 2026-05-06 22:12 | 53.57669 | -2.17236 | 22037 ft | 337 kts | 196° |
| 2026-05-06 22:13 | 53.55388 | -2.18170 | 21823 ft | 337 kts | 196° |
| 2026-05-06 22:13 | 53.53122 | -2.19100 | 21617 ft | 336 kts | 196° |
| 2026-05-06 22:13 | 53.51043 | -2.19953 | 21424 ft | 335 kts | 196° |
| 2026-05-06 22:13 | 53.48784 | -2.20880 | 21220 ft | 334 kts | 196° |
| 2026-05-06 22:14 | 53.46526 | -2.21806 | 21007 ft | 333 kts | 196° |
| 2026-05-06 22:14 | 53.44271 | -2.22729 | 20800 ft | 332 kts | 196° |
| 2026-05-06 22:14 | 53.42033 | -2.23644 | 20589 ft | 331 kts | 196° |
| 2026-05-06 22:14 | 53.39797 | -2.24557 | 20390 ft | 330 kts | 196° |
| 2026-05-06 22:15 | 53.37571 | -2.25445 | 20187 ft | 329 kts | 192° |
| 2026-05-06 22:15 | 53.35282 | -2.25424 | 19935 ft | 334 kts | 170° |
| 2026-05-06 22:15 | 53.33115 | -2.24001 | 19635 ft | 338 kts | 154° |
| 2026-05-06 22:15 | 53.31048 | -2.22114 | 19325 ft | 339 kts | 153° |
| 2026-05-06 22:16 | 53.28991 | -2.20162 | 18994 ft | 339 kts | 152° |
| 2026-05-06 22:16 | 53.26948 | -2.18220 | 18670 ft | 337 kts | 153° |
| 2026-05-06 22:16 | 53.24913 | -2.16302 | 18347 ft | 335 kts | 153° |
| 2026-05-06 22:16 | 53.22890 | -2.14412 | 17980 ft | 333 kts | 153° |
| 2026-05-06 22:17 | 53.20873 | -2.12543 | 17645 ft | 330 kts | 153° |
| 2026-05-06 22:17 | 53.18874 | -2.10698 | 17314 ft | 327 kts | 153° |
| 2026-05-06 22:17 | 53.16888 | -2.08870 | 16999 ft | 324 kts | 153° |
| 2026-05-06 22:17 | 53.14919 | -2.07062 | 16693 ft | 322 kts | 153° |
| 2026-05-06 22:18 | 53.12969 | -2.05273 | 16377 ft | 319 kts | 153° |
| 2026-05-06 22:18 | 53.11029 | -2.03495 | 16082 ft | 317 kts | 153° |
| 2026-05-06 22:18 | 53.09108 | -2.01737 | 15792 ft | 314 kts | 153° |
| 2026-05-06 22:18 | 53.07202 | -1.99995 | 15486 ft | 312 kts | 153° |
| 2026-05-06 22:19 | 53.05299 | -1.98260 | 15191 ft | 310 kts | 154° |
| 2026-05-06 22:19 | 53.03293 | -1.97108 | 14871 ft | 304 kts | 175° |
| 2026-05-06 22:19 | 53.01198 | -1.96797 | 14620 ft | 300 kts | 178° |
| 2026-05-06 22:19 | 52.99118 | -1.96551 | 14334 ft | 299 kts | 178° |
| 2026-05-06 22:20 | 52.97069 | -1.96314 | 14061 ft | 299 kts | 178° |
| 2026-05-06 22:20 | 52.94969 | -1.96063 | 13749 ft | 299 kts | 178° |
| 2026-05-06 22:20 | 52.92925 | -1.95810 | 13434 ft | 298 kts | 178° |
| 2026-05-06 22:20 | 52.91528 | -1.95634 | 13232 ft | 298 kts | 178° |
| 2026-05-06 22:21 | 52.88798 | -1.95285 | 12854 ft | 297 kts | 177° |
| 2026-05-06 22:21 | 52.86743 | -1.95019 | 12558 ft | 296 kts | 177° |
| 2026-05-06 22:21 | 52.84687 | -1.94752 | 12281 ft | 296 kts | 177° |
| 2026-05-06 22:21 | 52.82633 | -1.94484 | 11993 ft | 296 kts | 177° |
| 2026-05-06 22:22 | 52.80612 | -1.94221 | 11707 ft | 295 kts | 177° |
| 2026-05-06 22:22 | 52.78565 | -1.93955 | 11443 ft | 295 kts | 177° |
| 2026-05-06 22:22 | 52.77181 | -1.93775 | 11245 ft | 295 kts | 177° |
| 2026-05-06 22:22 | 52.75132 | -1.93509 | 10962 ft | 295 kts | 176° |
| 2026-05-06 22:23 | 52.73088 | -1.93244 | 10665 ft | 294 kts | 176° |
| 2026-05-06 22:23 | 52.71036 | -1.92978 | 10220 ft | 298 kts | 176° |
| 2026-05-06 22:23 | 52.68943 | -1.92707 | 9619 ft | 306 kts | 176° |
| 2026-05-06 22:23 | 52.66834 | -1.92434 | 8970 ft | 310 kts | 176° |
| 2026-05-06 22:24 | 52.64679 | -1.92155 | 8328 ft | 312 kts | 176° |
| 2026-05-06 22:24 | 52.62518 | -1.91871 | 7681 ft | 311 kts | 175° |
| 2026-05-06 22:24 | 52.60451 | -1.90897 | 7028 ft | 311 kts | 151° |
| 2026-05-06 22:24 | 52.58880 | -1.88548 | 6471 ft | 306 kts | 120° |
| 2026-05-06 22:25 | 52.58265 | -1.85314 | 5993 ft | 294 kts | 89° |
| 2026-05-06 22:25 | 52.58732 | -1.82151 | 5532 ft | 282 kts | 56° |
| 2026-05-06 22:25 | 52.60098 | -1.80053 | 5272 ft | 264 kts | 23° |
| 2026-05-06 22:25 | 52.61852 | -1.79599 | 4998 ft | 256 kts | 350° |
| 2026-05-06 22:26 | 52.63485 | -1.80651 | 4785 ft | 254 kts | 322° |
| 2026-05-06 22:26 | 52.64502 | -1.82992 | 4488 ft | 257 kts | 288° |
| 2026-05-06 22:26 | 52.64497 | -1.85900 | 4256 ft | 260 kts | 252° |
| 2026-05-06 22:26 | 52.63474 | -1.88307 | 3979 ft | 260 kts | 216° |
| 2026-05-06 22:27 | 52.61907 | -1.89731 | 3748 ft | 256 kts | 203° |
| 2026-05-06 22:27 | 52.60219 | -1.90252 | 3601 ft | 243 kts | 169° |
| 2026-05-06 22:27 | 52.58681 | -1.89312 | 3362 ft | 234 kts | 150° |
| 2026-05-06 22:27 | 52.57277 | -1.88030 | 3063 ft | 227 kts | 146° |
| 2026-05-06 22:28 | 52.56004 | -1.86648 | 2733 ft | 211 kts | 143° |
| 2026-05-06 22:28 | 52.54841 | -1.85337 | 2470 ft | 195 kts | 142° |
| 2026-05-06 22:28 | 52.53756 | -1.84124 | 2207 ft | 182 kts | 141° |
| 2026-05-06 22:28 | 52.52747 | -1.83005 | 1971 ft | 169 kts | 142° |
| 2026-05-06 22:29 | 52.51833 | -1.81972 | 1761 ft | 152 kts | 139° |
| 2026-05-06 22:29 | 52.50952 | -1.81000 | 1536 ft | 154 kts | 142° |
| 2026-05-06 22:29 | 52.50070 | -1.80029 | 1268 ft | 152 kts | 142° |
| 2026-05-06 22:29 | 52.49215 | -1.79067 | 1064 ft | 147 kts | 144° |
| 2026-05-06 22:30 | 52.48374 | -1.78120 | 858 ft | 147 kts | 142° |
| 2026-05-06 22:30 | 52.47536 | -1.77182 | 652 ft | 145 kts | 143° |
| 2026-05-06 22:30 | 52.46712 | -1.76271 | 430 ft | 142 kts | 143° |
| 2026-05-06 22:30 | 52.45899 | -1.75368 | 319 ft | 136 kts | 143° |
| 2026-05-06 22:31 | 52.45242 | -1.74639 | 328 ft | 95 kts | 146° |
| 2026-05-06 22:31 | 52.44844 | -1.74200 | 323 ft | 47 kts | 146° |
| 2026-05-06 22:31 | 52.44684 | -1.74021 | 324 ft | 10 kts | 145° |
| 2026-05-06 22:31 | 52.44652 | -1.73952 | 323 ft | 8 kts | 94° |
| 2026-05-06 22:32 | 52.44676 | -1.73876 | 324 ft | 8 kts | 53° |
| 2026-05-06 22:32 | 52.44713 | -1.73796 | 323 ft | 10 kts | 53° |
| 2026-05-06 22:32 | 52.44764 | -1.73715 | 323 ft | 10 kts | 24° |
| 2026-05-06 22:32 | 52.44830 | -1.73684 | 323 ft | 9 kts | 17° |
| 2026-05-06 22:33 | 52.44876 | -1.73611 | 323 ft | 9 kts | 57° |
| 2026-05-06 22:33 | 52.44901 | -1.73517 | 322 ft | 9 kts | 73° |
| 2026-05-06 22:33 | 52.44933 | -1.73431 | 322 ft | 9 kts | 55° |
| 2026-05-06 22:33 | 52.44966 | -1.73352 | 322 ft | 8 kts | 56° |
| 2026-05-06 22:34 | 52.44990 | -1.73298 | 321 ft | 5 kts | 44° |
| 2026-05-06 22:34 | 52.45021 | -1.73305 | 323 ft | 4 kts | 329° |
| 2026-05-06 22:34 | 52.45033 | -1.73317 | 322 ft | 1 kts | 327° |
| 2026-05-06 22:34 | 52.45038 | -1.73323 | 323 ft | 1 kts | 327° |
| 2026-05-06 22:35 | 52.45039 | -1.73324 | 323 ft | 0 kts | 327° |